TNZ78 NZCH-NZAA
Flight info
| Callsign | TNZ78 |
|---|---|
| Flight time | N/A |
| Altitude | 37000 |
| Route | GLENN Y175 OMKUN Y655 POKOM Q277 DAVEE |
| Aircraft | B738/M-SDE1FGHIJ1M1RWY/LB1 |
Departure
| Time | 2026-05-07 21:02 |
|---|---|
| Airport | Christchurch International Airport (NZCH) |
Arrival
| Time | N/A |
|---|---|
| Airport | Auckland International Airport (NZAA) |
| Time | Latitude | Longitude | Altitude | Speed | Heading |
|---|---|---|---|---|---|
| 2026-05-07 20:53 | -43.48416 | 172.54311 | 107 ft | 0 kts | 221° |
| 2026-05-07 20:56 | -43.48416 | 172.54310 | 107 ft | 0 kts | 221° |
| 2026-05-07 20:56 | -43.48417 | 172.54310 | 107 ft | 0 kts | 221° |
| 2026-05-07 20:57 | -43.48419 | 172.54253 | 107 ft | 13 kts | 291° |
| 2026-05-07 20:57 | -43.48427 | 172.54099 | 106 ft | 19 kts | 223° |
| 2026-05-07 20:57 | -43.48524 | 172.53980 | 106 ft | 19 kts | 223° |
| 2026-05-07 20:57 | -43.48625 | 172.53864 | 107 ft | 18 kts | 223° |
| 2026-05-07 20:58 | -43.48717 | 172.53750 | 108 ft | 18 kts | 221° |
| 2026-05-07 20:58 | -43.48809 | 172.53644 | 108 ft | 17 kts | 220° |
| 2026-05-07 20:58 | -43.48900 | 172.53545 | 107 ft | 16 kts | 215° |
| 2026-05-07 20:58 | -43.48988 | 172.53452 | 113 ft | 16 kts | 219° |
| 2026-05-07 20:59 | -43.49079 | 172.53348 | 111 ft | 18 kts | 220° |
| 2026-05-07 20:59 | -43.49171 | 172.53241 | 112 ft | 17 kts | 220° |
| 2026-05-07 20:59 | -43.49274 | 172.53122 | 115 ft | 24 kts | 220° |
| 2026-05-07 20:59 | -43.49419 | 172.52952 | 121 ft | 31 kts | 220° |
| 2026-05-07 21:00 | -43.49509 | 172.52822 | 127 ft | 12 kts | 258° |
| 2026-05-07 21:00 | -43.49508 | 172.52758 | 128 ft | 5 kts | 273° |
| 2026-05-07 21:00 | -43.49506 | 172.52707 | 127 ft | 6 kts | 273° |
| 2026-05-07 21:00 | -43.49501 | 172.52631 | 121 ft | 12 kts | 276° |
| 2026-05-07 21:01 | -43.49465 | 172.52556 | 120 ft | 6 kts | 15° |
| 2026-05-07 21:01 | -43.49457 | 172.52565 | 122 ft | 0 kts | 40° |
| 2026-05-07 21:01 | -43.49359 | 172.52679 | 123 ft | 52 kts | 40° |
| 2026-05-07 21:02 | -43.48882 | 172.53230 | 112 ft | 122 kts | 40° |
| 2026-05-07 21:02 | -43.48093 | 172.54119 | 276 ft | 160 kts | 40° |
| 2026-05-07 21:02 | -43.47231 | 172.55076 | 964 ft | 160 kts | 36° |
| 2026-05-07 21:02 | -43.46268 | 172.55778 | 1822 ft | 158 kts | 22° |
| 2026-05-07 21:03 | -43.45185 | 172.56398 | 2351 ft | 178 kts | 22° |
| 2026-05-07 21:03 | -43.44006 | 172.57097 | 2890 ft | 192 kts | 22° |
| 2026-05-07 21:03 | -43.42719 | 172.57890 | 3171 ft | 216 kts | 23° |
| 2026-05-07 21:03 | -43.41268 | 172.58814 | 3423 ft | 244 kts | 23° |
| 2026-05-07 21:04 | -43.39714 | 172.59821 | 4157 ft | 250 kts | 22° |
| 2026-05-07 21:04 | -43.38129 | 172.60857 | 4978 ft | 254 kts | 22° |
| 2026-05-07 21:04 | -43.36528 | 172.61906 | 5832 ft | 256 kts | 21° |
| 2026-05-07 21:04 | -43.34907 | 172.62969 | 6635 ft | 259 kts | 20° |
| 2026-05-07 21:05 | -43.33266 | 172.64024 | 7429 ft | 261 kts | 17° |
| 2026-05-07 21:05 | -43.31561 | 172.64861 | 8222 ft | 261 kts | 12° |
| 2026-05-07 21:05 | -43.29824 | 172.65615 | 9053 ft | 263 kts | 11° |
| 2026-05-07 21:05 | -43.28069 | 172.66364 | 9829 ft | 266 kts | 11° |
| 2026-05-07 21:06 | -43.26284 | 172.67128 | 10421 ft | 276 kts | 11° |
| 2026-05-07 21:06 | -43.24370 | 172.67948 | 10622 ft | 299 kts | 11° |
| 2026-05-07 21:06 | -43.22349 | 172.68828 | 11164 ft | 308 kts | 12° |
| 2026-05-07 21:06 | -43.20301 | 172.69732 | 11936 ft | 310 kts | 12° |
| 2026-05-07 21:07 | -43.18241 | 172.70647 | 12737 ft | 312 kts | 12° |
| 2026-05-07 21:07 | -43.16164 | 172.71571 | 13515 ft | 316 kts | 12° |
| 2026-05-07 21:07 | -43.14060 | 172.72505 | 14206 ft | 320 kts | 12° |
| 2026-05-07 21:07 | -43.11935 | 172.73450 | 14952 ft | 322 kts | 12° |
| 2026-05-07 21:08 | -43.09792 | 172.74402 | 15709 ft | 325 kts | 12° |
| 2026-05-07 21:08 | -43.07630 | 172.75361 | 16441 ft | 328 kts | 12° |
| 2026-05-07 21:08 | -43.05442 | 172.76331 | 17150 ft | 332 kts | 12° |
| 2026-05-07 21:08 | -43.03232 | 172.77310 | 17867 ft | 336 kts | 12° |
| 2026-05-07 21:09 | -43.00998 | 172.78299 | 18499 ft | 339 kts | 12° |
| 2026-05-07 21:09 | -42.98745 | 172.79296 | 19136 ft | 341 kts | 12° |
| 2026-05-07 21:09 | -42.96481 | 172.80298 | 19767 ft | 343 kts | 12° |
| 2026-05-07 21:09 | -42.94190 | 172.81310 | 20337 ft | 348 kts | 12° |
| 2026-05-07 21:10 | -42.91874 | 172.82332 | 20897 ft | 352 kts | 12° |
| 2026-05-07 21:10 | -42.89537 | 172.83363 | 21509 ft | 355 kts | 12° |
| 2026-05-07 21:10 | -42.87178 | 172.84416 | 22069 ft | 359 kts | 14° |
| 2026-05-07 21:10 | -42.84814 | 172.85588 | 22642 ft | 364 kts | 15° |
| 2026-05-07 21:11 | -42.82438 | 172.86827 | 23210 ft | 367 kts | 16° |
| 2026-05-07 21:11 | -42.80047 | 172.88090 | 23704 ft | 370 kts | 16° |
| 2026-05-07 21:11 | -42.75200 | 172.90639 | 24612 ft | 376 kts | 15° |
| 2026-05-07 21:12 | -42.72751 | 172.91916 | 25073 ft | 378 kts | 15° |
| 2026-05-07 21:12 | -42.70287 | 172.93195 | 25523 ft | 381 kts | 15° |
| 2026-05-07 21:12 | -42.67797 | 172.94482 | 25964 ft | 384 kts | 15° |
| 2026-05-07 21:12 | -42.65294 | 172.95773 | 26400 ft | 386 kts | 15° |
| 2026-05-07 21:13 | -42.62772 | 172.97071 | 26836 ft | 389 kts | 15° |
| 2026-05-07 21:13 | -42.60237 | 172.98375 | 27254 ft | 391 kts | 15° |
| 2026-05-07 21:13 | -42.57683 | 172.99687 | 27658 ft | 394 kts | 15° |
| 2026-05-07 21:13 | -42.55110 | 173.01007 | 28089 ft | 396 kts | 15° |
| 2026-05-07 21:14 | -42.52526 | 173.02331 | 28483 ft | 399 kts | 15° |
| 2026-05-07 21:14 | -42.49957 | 173.03649 | 28880 ft | 401 kts | 15° |
| 2026-05-07 21:14 | -42.47337 | 173.04987 | 29226 ft | 404 kts | 15° |
| 2026-05-07 21:14 | -42.44699 | 173.06333 | 29639 ft | 406 kts | 15° |
| 2026-05-07 21:15 | -42.42012 | 173.07708 | 29987 ft | 409 kts | 15° |
| 2026-05-07 21:15 | -42.39346 | 173.09072 | 30316 ft | 411 kts | 15° |
| 2026-05-07 21:15 | -42.36704 | 173.10420 | 30617 ft | 412 kts | 15° |
| 2026-05-07 21:15 | -42.34012 | 173.11793 | 30889 ft | 415 kts | 15° |
| 2026-05-07 21:16 | -42.31310 | 173.13171 | 31228 ft | 416 kts | 15° |
| 2026-05-07 21:16 | -42.28598 | 173.14548 | 31520 ft | 418 kts | 15° |
| 2026-05-07 21:16 | -42.25869 | 173.15925 | 31738 ft | 420 kts | 16° |
| 2026-05-07 21:16 | -42.23132 | 173.17379 | 31827 ft | 427 kts | 16° |
| 2026-05-07 21:17 | -42.20347 | 173.18805 | 32048 ft | 428 kts | 16° |
| 2026-05-07 21:17 | -42.17568 | 173.20200 | 32496 ft | 424 kts | 15° |
| 2026-05-07 21:17 | -42.14804 | 173.21574 | 32902 ft | 423 kts | 15° |
| 2026-05-07 21:17 | -42.12047 | 173.22947 | 33237 ft | 422 kts | 15° |
| 2026-05-07 21:18 | -42.09297 | 173.24329 | 33600 ft | 422 kts | 15° |
| 2026-05-07 21:18 | -42.06554 | 173.25713 | 33959 ft | 420 kts | 15° |
| 2026-05-07 21:18 | -42.03820 | 173.27107 | 34233 ft | 420 kts | 15° |
| 2026-05-07 21:18 | -42.01075 | 173.28491 | 34445 ft | 422 kts | 15° |
| 2026-05-07 21:19 | -41.98325 | 173.29868 | 34729 ft | 421 kts | 15° |
| 2026-05-07 21:19 | -41.95583 | 173.31240 | 35050 ft | 420 kts | 15° |
| 2026-05-07 21:19 | -41.92856 | 173.32638 | 35298 ft | 420 kts | 15° |
| 2026-05-07 21:19 | -41.90114 | 173.34025 | 35443 ft | 422 kts | 15° |
| 2026-05-07 21:20 | -41.87361 | 173.35391 | 35739 ft | 421 kts | 15° |
| 2026-05-07 21:20 | -41.84659 | 173.36799 | 36450 ft | 415 kts | 15° |
| 2026-05-07 21:20 | -41.82002 | 173.38135 | 36783 ft | 412 kts | 14° |
| 2026-05-07 21:20 | -41.79298 | 173.39446 | 36812 ft | 416 kts | 14° |
| 2026-05-07 21:21 | -41.73808 | 173.42139 | 36867 ft | 425 kts | 14° |
| 2026-05-07 21:21 | -41.68222 | 173.44924 | 36889 ft | 432 kts | 14° |
| 2026-05-07 21:22 | -41.62499 | 173.47499 | 36847 ft | 442 kts | 18° |
| 2026-05-07 21:22 | -41.56925 | 173.50718 | 36875 ft | 430 kts | 15° |
| 2026-05-07 21:23 | -41.51309 | 173.53455 | 37100 ft | 430 kts | 13° |
| 2026-05-07 21:23 | -41.48496 | 173.54837 | 37370 ft | 429 kts | 14° |
| 2026-05-07 21:23 | -41.46604 | 173.55753 | 37546 ft | 428 kts | 14° |
| 2026-05-07 21:24 | -41.42907 | 173.57528 | 37934 ft | 424 kts | 14° |
| 2026-05-07 21:24 | -41.41070 | 173.58414 | 38176 ft | 423 kts | 14° |
| 2026-05-07 21:24 | -41.38276 | 173.59764 | 38445 ft | 421 kts | 13° |
| 2026-05-07 21:24 | -41.35508 | 173.61076 | 38552 ft | 424 kts | 14° |
| 2026-05-07 21:25 | -41.32730 | 173.62433 | 38667 ft | 426 kts | 14° |
| 2026-05-07 21:25 | -41.29957 | 173.63805 | 38873 ft | 425 kts | 14° |
| 2026-05-07 21:25 | -41.24388 | 173.66556 | 38913 ft | 430 kts | 14° |
| 2026-05-07 21:26 | -41.18785 | 173.69309 | 38904 ft | 435 kts | 14° |
| 2026-05-07 21:26 | -41.13086 | 173.72097 | 38931 ft | 439 kts | 14° |
| 2026-05-07 21:27 | -41.07299 | 173.74921 | 38938 ft | 442 kts | 14° |
| 2026-05-07 21:27 | -41.01547 | 173.77726 | 38940 ft | 437 kts | 14° |
| 2026-05-07 21:28 | -40.95881 | 173.80475 | 38916 ft | 431 kts | 14° |
| 2026-05-07 21:28 | -40.90262 | 173.83202 | 38923 ft | 429 kts | 14° |
| 2026-05-07 21:29 | -40.84683 | 173.85905 | 38938 ft | 428 kts | 13° |
| 2026-05-07 21:29 | -40.79045 | 173.88623 | 38961 ft | 434 kts | 14° |
| 2026-05-07 21:30 | -40.73338 | 173.91374 | 38922 ft | 438 kts | 14° |
| 2026-05-07 21:30 | -40.67598 | 173.94141 | 38944 ft | 440 kts | 14° |
| 2026-05-07 21:31 | -40.61832 | 173.96915 | 38952 ft | 442 kts | 14° |
| 2026-05-07 21:31 | -40.56078 | 173.99677 | 38952 ft | 443 kts | 14° |
| 2026-05-07 21:32 | -40.50288 | 174.02451 | 38948 ft | 443 kts | 14° |
| 2026-05-07 21:32 | -40.44511 | 174.05214 | 38953 ft | 441 kts | 14° |
| 2026-05-07 21:33 | -40.38751 | 174.07964 | 38954 ft | 440 kts | 14° |
| 2026-05-07 21:33 | -40.33002 | 174.10704 | 38959 ft | 438 kts | 13° |
| 2026-05-07 21:34 | -40.27280 | 174.13429 | 38958 ft | 437 kts | 13° |
| 2026-05-07 21:34 | -40.21577 | 174.16149 | 38967 ft | 435 kts | 13° |
| 2026-05-07 21:35 | -40.15859 | 174.18872 | 38973 ft | 434 kts | 13° |
| 2026-05-07 21:35 | -40.10221 | 174.21552 | 38950 ft | 434 kts | 13° |
| 2026-05-07 21:36 | -40.04552 | 174.24242 | 38973 ft | 433 kts | 13° |
| 2026-05-07 21:36 | -39.98885 | 174.26925 | 38977 ft | 434 kts | 13° |
| 2026-05-07 21:37 | -39.93202 | 174.29597 | 38954 ft | 434 kts | 13° |
| 2026-05-07 21:37 | -39.87510 | 174.32265 | 38962 ft | 435 kts | 13° |
| 2026-05-07 21:38 | -39.81808 | 174.34928 | 38976 ft | 437 kts | 13° |
| 2026-05-07 21:38 | -39.76080 | 174.37603 | 38997 ft | 438 kts | 13° |
| 2026-05-07 21:39 | -39.70325 | 174.40288 | 39001 ft | 440 kts | 13° |
| 2026-05-07 21:39 | -39.64550 | 174.42978 | 38982 ft | 442 kts | 13° |
| 2026-05-07 21:40 | -39.58751 | 174.45675 | 39006 ft | 443 kts | 13° |
| 2026-05-07 21:40 | -39.52927 | 174.48379 | 39018 ft | 445 kts | 13° |